Time;durP1;ratioP1;P1;durP2;ratioP2;P2;SDS_P1;SDS_P2;PMS_P1;PMS_P2;Temp;Humidity;BMP_temperature;BMP_pressure;BME280_temperature;BME280_humidity;BME280_pressure;Samples;Min_cycle;Max_cycle;Signal;HPM_P1;HPM_P2
2022/09/10 00:00:55;;;;;;;1999.90;999.90;;;;;;;12.39;100.00;92445.97;6246053;23;20193;-62
2022/09/10 00:03:21;;;;;;;1999.90;999.90;;;;;;;12.38;100.00;92449.19;6246291;22;20167;-62
2022/09/10 00:05:47;;;;;;;1999.90;999.90;;;;;;;12.38;100.00;92449.19;6271242;22;20165;-62
2022/09/10 00:08:13;;;;;;;1999.90;999.90;;;;;;;12.37;100.00;92436.75;6245717;23;20547;-61
2022/09/10 00:10:40;;;;;;;1999.90;999.90;;;;;;;12.35;100.00;92455.66;6245951;22;20264;-62
2022/09/10 00:13:08;;;;;;;1999.90;999.90;;;;;;;12.31;100.00;92461.34;6272061;22;20166;-61
2022/09/10 00:15:41;;;;;;;1999.90;999.90;;;;;;;12.29;100.00;92466.56;6272006;22;20165;-63
2022/09/10 00:18:10;;;;;;;1999.90;999.90;;;;;;;12.23;100.00;92481.41;6245588;23;20168;-63
2022/09/10 00:20:47;;;;;;;1999.90;999.90;;;;;;;12.17;100.00;92473.16;6245614;22;20242;-62
2022/09/10 00:23:18;;;;;;;1999.90;999.90;;;;;;;12.14;100.00;92498.78;6271810;22;20196;-62
2022/09/10 00:25:47;;;;;;;1999.90;999.90;;;;;;;12.10;100.00;92514.63;6245905;23;20190;-62
2022/09/10 00:28:14;;;;;;;1999.90;999.90;;;;;;;12.07;100.00;92578.53;6271346;22;20174;-61
2022/09/10 00:30:45;;;;;;;1999.90;999.90;;;;;;;12.09;100.00;93125.91;6271952;22;20255;-60
2022/09/10 00:33:12;;;;;;;1999.90;999.90;;;;;;;12.14;100.00;93420.78;6246873;23;20184;-60
2022/09/10 00:35:39;;;;;;;1999.90;999.90;;;;;;;12.18;100.00;93580.06;6246278;23;20611;-61
2022/09/10 00:38:05;;;;;;;1999.90;999.90;;;;;;;12.18;100.00;93617.63;6271431;22;20184;-63
2022/09/10 00:40:30;;;;;;;1999.90;999.90;;;;;;;12.19;100.00;93646.50;6246308;23;20187;-61
2022/09/10 00:42:56;;;;;;;1999.90;999.90;;;;;;;12.18;100.00;93672.34;6271984;22;20204;-61
2022/09/10 00:45:28;;;;;;;1999.90;999.90;;;;;;;12.19;100.00;93712.16;6245929;23;20161;-61
2022/09/10 00:47:58;;;;;;;1999.90;999.90;;;;;;;12.22;100.00;93733.94;6246372;23;20186;-61
2022/09/10 00:50:28;;;;;;;1999.90;999.90;;;;;;;12.24;100.00;93744.44;6245185;23;20187;-61
2022/09/10 00:52:57;;;;;;;1999.90;999.90;;;;;;;12.24;100.00;93741.69;6245573;23;20163;-61
2022/09/10 00:55:23;;;;;;;1999.90;999.90;;;;;;;12.21;100.00;93759.75;6245852;23;20219;-63
2022/09/10 00:57:53;;;;;;;1999.90;999.90;;;;;;;12.20;100.00;93760.25;6240210;23;20238;-62
2022/09/10 01:00:20;;;;;;;1999.90;999.90;;;;;;;12.17;100.00;93763.88;6246180;23;20195;-62
2022/09/10 01:02:45;;;;;;;1999.90;999.90;;;;;;;12.17;100.00;93840.50;6246115;22;20174;-61
2022/09/10 01:05:12;;;;;;;1999.90;999.90;;;;;;;12.15;100.00;93848.38;6271197;22;20182;-61
2022/09/10 01:07:37;;;;;;;1999.90;999.90;;;;;;;12.14;100.00;93857.81;6246202;23;20169;-61
2022/09/10 01:10:33;;;;;;;1999.90;999.90;;;;;;;12.14;100.00;93857.81;6246178;22;20261;-60
2022/09/10 01:13:26;;;;;;;1999.90;999.90;;;;;;;12.14;100.00;93857.81;6246110;23;20205;-60
2022/09/10 01:16:33;;;;;;;1999.90;999.90;;;;;;;12.11;100.00;93847.78;6246026;23;20157;-60
2022/09/10 01:19:20;;;;;;;1999.90;999.90;;;;;;;12.13;100.00;93850.81;6204460;23;20257;-61
2022/09/10 01:21:56;;;;;;;1999.90;999.90;;;;;;;12.15;100.00;93864.81;6271406;22;20487;-61
2022/09/10 01:25:17;;;;;;;1999.90;999.90;;;;;;;12.16;100.00;93877.28;6271890;22;20172;-61
2022/09/10 01:28:06;;;;;;;1999.90;999.90;;;;;;;12.22;100.00;93859.84;6195884;23;20247;-60
2022/09/10 01:30:42;;;;;;;1999.90;999.90;;;;;;;12.24;100.00;93862.88;6245830;23;20224;-61
2022/09/10 01:33:15;;;;;;;1999.90;999.90;;;;;;;12.31;100.00;93876.28;6245966;23;20168;-61
2022/09/10 01:35:48;;;;;;;1999.90;999.90;;;;;;;12.37;100.00;93879.94;6245656;23;20603;-62
2022/09/10 01:38:19;;;;;;;1999.90;999.90;;;;;;;12.39;100.00;93887.72;6270872;22;20169;-61
2022/09/10 01:40:45;;;;;;;1999.90;999.90;;;;;;;12.45;100.00;93883.16;6246067;23;20209;-61
2022/09/10 01:43:11;;;;;;;1999.90;999.90;;;;;;;12.48;100.00;93885.00;6245548;23;20165;-61
2022/09/10 01:46:02;;;;;;;1999.90;999.90;;;;;;;12.51;100.00;93875.88;6271525;22;20193;-61
2022/09/10 01:48:45;;;;;;;1999.90;999.90;;;;;;;12.51;100.00;93878.63;6270878;22;20213;-60
2022/09/10 01:51:18;;;;;;;1999.90;999.90;;;;;;;12.51;100.00;93875.88;6270906;22;20534;-60
2022/09/10 01:53:49;;;;;;;1999.90;999.90;;;;;;;12.52;100.00;93877.41;6270820;22;20250;-61
2022/09/10 01:56:48;;;;;;;1999.90;999.90;;;;;;;12.49;100.00;93872.81;6271238;22;20181;-61
2022/09/10 01:59:53;;;;;;;1999.90;999.90;;;;;;;12.49;100.00;93870.09;6271223;22;20190;-61
2022/09/10 02:02:28;;;;;;;1999.90;999.90;;;;;;;12.52;100.00;93861.75;6270796;22;20163;-61
2022/09/10 02:04:55;;;;;;;1999.90;999.90;;;;;;;12.55;100.00;93866.31;6245330;23;20226;-61
2022/09/10 02:07:23;;;;;;;1999.90;999.90;;;;;;;12.59;100.00;93866.16;6245226;23;20167;-61
2022/09/10 02:09:50;;;;;;;1999.90;999.90;;;;;;;12.62;100.00;93866.03;6271417;22;20169;-61
2022/09/10 02:12:18;;;;;;;1999.90;999.90;;;;;;;12.63;100.00;93861.28;6245373;22;20166;-62
2022/09/10 02:14:46;;;;;;;1999.90;999.90;;;;;;;12.62;100.00;93865.25;6245217;23;20604;-61
2022/09/10 02:17:12;;;;;;;1999.90;999.90;;;;;;;12.57;100.00;93865.88;6245054;22;20254;-61
2022/09/10 02:19:37;;;;;;;1999.90;999.90;;;;;;;12.55;100.00;93854.59;6245085;23;20213;-62
2022/09/10 02:22:04;;;;;;;1999.90;999.90;;;;;;;12.54;100.00;93855.81;6244858;23;20211;-61
2022/09/10 02:24:29;;;;;;;1999.90;999.90;;;;;;;12.51;100.00;93849.28;6245250;23;20589;-60
2022/09/10 02:26:55;;;;;;;1999.90;999.90;;;;;;;12.47;100.00;93847.88;6271034;22;20264;-61
2022/09/10 02:29:20;;;;;;;1999.90;999.90;;;;;;;12.41;100.00;93844.22;6245146;23;20166;-61
2022/09/10 02:31:46;;;;;;;1999.90;999.90;;;;;;;12.35;100.00;93851.50;6244999;22;20162;-60
2022/09/10 02:34:11;;;;;;;1999.90;999.90;;;;;;;12.29;100.00;93847.84;6271188;22;20228;-60
2022/09/10 02:36:37;;;;;;;1999.90;999.90;;;;;;;12.21;100.00;93846.59;6270426;22;20169;-62
2022/09/10 02:39:04;;;;;;;1999.90;999.90;;;;;;;12.16;100.00;93855.38;6270445;22;20187;-62
2022/09/10 02:41:33;;;;;;;1999.90;999.90;;;;;;;12.13;100.00;93848.84;6270292;22;20236;-61
2022/09/10 02:44:00;;;;;;;1999.90;999.90;;;;;;;12.12;100.00;93854.75;6245267;23;20498;-61
2022/09/10 02:46:27;;;;;;;1999.90;999.90;;;;;;;12.17;100.00;93862.41;6245373;23;20170;-61
2022/09/10 02:48:53;;;;;;;1999.90;999.90;;;;;;;12.11;100.00;93858.72;6270484;22;20257;-61
2022/09/10 02:51:22;;;;;;;1999.90;999.90;;;;;;;12.05;100.00;93874.19;6244997;22;20202;-61
2022/09/10 02:53:48;;;;;;;1999.90;999.90;;;;;;;12.04;100.00;93880.88;6244787;23;20171;-62
2022/09/10 02:56:14;;;;;;;1999.90;999.90;;;;;;;12.00;100.00;93880.25;6270517;22;20164;-60
2022/09/10 02:58:40;;;;;;;1999.90;999.90;;;;;;;12.05;100.00;93876.91;6245561;22;20168;-61
2022/09/10 03:01:14;;;;;;;1999.90;999.90;;;;;;;12.05;100.00;93882.38;6245188;23;20231;-60
2022/09/10 03:03:40;;;;;;;1999.90;999.90;;;;;;;11.99;100.00;93889.69;6270579;22;20575;-61
2022/09/10 03:06:06;;;;;;;1999.90;999.90;;;;;;;11.97;100.00;93892.09;6244324;23;20169;-61
2022/09/10 03:08:32;;;;;;;1999.90;999.90;;;;;;;11.93;100.00;93885.97;6244908;23;20265;-61
2022/09/10 03:11:00;;;;;;;1999.90;999.90;;;;;;;11.91;100.00;93886.44;6244699;23;20202;-61
2022/09/10 03:13:27;;;;;;;1999.90;999.90;;;;;;;11.87;100.00;93885.06;6270892;22;20167;-60
2022/09/10 03:15:57;;;;;;;1999.90;999.90;;;;;;;11.85;100.00;93884.72;6245960;23;20157;-60
2022/09/10 03:18:23;;;;;;;1999.90;999.90;;;;;;;11.81;100.00;93878.63;6246920;23;20171;-60
2022/09/10 03:20:50;;;;;;;1999.90;999.90;;;;;;;11.80;100.00;93888.06;6271408;22;20254;-61
2022/09/10 03:23:16;;;;;;;1999.90;999.90;;;;;;;11.77;100.00;93878.00;6246607;22;20162;-60
2022/09/10 03:25:42;;;;;;;1999.90;999.90;;;;;;;11.78;100.00;93874.06;6246149;22;20165;-61
2022/09/10 03:28:09;;;;;;;1999.90;999.90;;;;;;;11.76;100.00;93868.28;6272114;22;20228;-62
2022/09/10 03:30:35;;;;;;;1999.90;999.90;;;;;;;11.80;100.00;93868.91;6271900;22;20212;-60
2022/09/10 03:33:01;;;;;;;1999.90;999.90;;;;;;;11.79;100.00;93870.88;6245977;23;20166;-60
2022/09/10 03:35:26;;;;;;;1999.90;999.90;;;;;;;11.80;100.00;93871.66;6245978;22;20166;-61
2022/09/10 03:37:52;;;;;;;1999.90;999.90;;;;;;;11.81;100.00;93862.22;6246062;22;20161;-60
2022/09/10 03:40:18;;;;;;;1999.90;999.90;;;;;;;11.88;100.00;93859.22;6272020;22;20177;-60
2022/09/10 03:42:43;;;;;;;1999.90;999.90;;;;;;;11.92;100.00;93859.84;6272193;22;20201;-61
2022/09/10 03:45:09;;;;;;;1999.90;999.90;;;;;;;11.98;100.00;93864.28;6246652;22;20168;-60
2022/09/10 03:47:38;;;;;;;1999.90;999.90;;;;;;;12.02;100.00;93853.22;6271642;22;20167;-60
2022/09/10 03:50:05;;;;;;;1999.90;999.90;;;;;;;12.06;100.00;93851.09;6271453;22;20216;-60
2022/09/10 03:52:30;;;;;;;1999.90;999.90;;;;;;;12.11;100.00;93853.25;6245598;22;20249;-60
2022/09/10 03:54:56;;;;;;;1999.90;999.90;;;;;;;12.13;100.00;93856.31;6272405;22;20199;-60
2022/09/10 03:57:22;;;;;;;1999.90;999.90;;;;;;;12.18;100.00;93852.97;6271533;22;20176;-60
2022/09/10 03:59:48;;;;;;;1999.90;999.90;;;;;;;12.21;100.00;93858.28;6245814;23;20240;-60
2022/09/10 04:02:14;;;;;;;1999.90;999.90;;;;;;;12.24;100.00;93846.44;6246070;23;20265;-60
2022/09/10 04:04:41;;;;;;;1999.90;999.90;;;;;;;12.27;100.00;93844.78;6245518;22;20184;-61
2022/09/10 04:07:09;;;;;;;1999.90;999.90;;;;;;;12.31;100.00;93853.63;6246022;23;20178;-60
2022/09/10 04:09:34;;;;;;;1999.90;999.90;;;;;;;12.32;100.00;93849.66;6245909;23;20164;-60
2022/09/10 04:12:00;;;;;;;1999.90;999.90;;;;;;;12.36;100.00;93853.81;6272427;22;20167;-60
2022/09/10 04:14:26;;;;;;;1999.90;999.90;;;;;;;12.44;100.00;93848.78;6245712;23;20504;-60
2022/09/10 04:16:51;;;;;;;1999.90;999.90;;;;;;;12.48;100.00;93849.41;6271274;22;20181;-60
2022/09/10 04:19:16;;;;;;;1999.90;999.90;;;;;;;12.51;100.00;93845.75;6271425;22;20187;-60
2022/09/10 04:21:42;;;;;;;1999.90;999.90;;;;;;;12.55;100.00;93852.63;6245983;23;20494;-61
2022/09/10 04:24:10;;;;;;;1999.90;999.90;;;;;;;12.57;100.00;93858.41;6271448;22;20163;-61
2022/09/10 04:26:36;;;;;;;1999.90;999.90;;;;;;;12.57;100.00;93857.66;6270818;22;20175;-60
2022/09/10 04:29:01;;;;;;;1999.90;999.90;;;;;;;12.62;100.00;93854.31;6271352;22;20165;-60
2022/09/10 04:31:26;;;;;;;1999.90;999.90;;;;;;;12.64;100.00;93851.88;6271603;22;20481;-60
2022/09/10 04:33:52;;;;;;;1999.90;999.90;;;;;;;12.63;100.00;93866.78;6270835;22;20241;-60
2022/09/10 04:36:18;;;;;;;1999.90;999.90;;;;;;;12.65;100.00;93864.34;6271444;22;20173;-60
2022/09/10 04:38:43;;;;;;;1999.90;999.90;;;;;;;12.69;100.00;93867.72;6271247;22;20159;-61
2022/09/10 04:41:09;;;;;;;1999.90;999.90;;;;;;;12.73;100.00;93868.31;6271404;22;20188;-61
2022/09/10 04:43:35;;;;;;;1999.90;999.90;;;;;;;12.77;100.00;93877.16;6246122;23;20198;-61
2022/09/10 04:46:01;;;;;;;1999.90;999.90;;;;;;;12.83;100.00;93880.84;6245777;23;20248;-61
2022/09/10 04:48:26;;;;;;;1999.90;999.90;;;;;;;12.87;100.00;93892.41;6271752;22;20196;-61
2022/09/10 04:50:52;;;;;;;1999.90;999.90;;;;;;;12.91;100.00;93893.78;6245665;23;20189;-60
2022/09/10 04:53:18;;;;;;;1999.90;999.90;;;;;;;12.93;100.00;93887.84;6245664;22;20191;-61
2022/09/10 04:55:46;;;;;;;1999.90;999.90;;;;;;;12.98;100.00;93898.22;6245464;23;20263;-61
2022/09/10 04:58:12;;;;;;;1999.90;999.90;;;;;;;13.09;100.00;93882.09;6245686;22;20195;-60
2022/09/10 05:00:38;;;;;;;1999.90;999.90;;;;;;;13.28;100.00;93889.13;6246133;23;20494;-60
2022/09/10 05:03:04;;;;;;;1999.90;999.90;;;;;;;13.70;100.00;93881.78;6245832;22;20251;-61
2022/09/10 05:05:30;;;;;;;1999.90;999.90;;;;;;;14.10;100.00;93876.81;6245866;23;20199;-61
2022/09/10 05:07:55;;;;;;;1999.90;999.90;;;;;;;14.11;100.00;93886.56;6245491;22;20492;-60
2022/09/10 05:10:23;;;;;;;1999.90;999.90;;;;;;;14.06;100.00;93902.91;6271311;22;20196;-61
2022/09/10 05:12:48;;;;;;;1999.90;999.90;;;;;;;13.95;100.00;93913.59;6271240;22;20259;-61
2022/09/10 05:15:14;;;;;;;1999.90;999.90;;;;;;;13.83;100.00;93929.00;6245676;22;20535;-61
2022/09/10 05:17:39;;;;;;;1999.90;999.90;;;;;;;13.78;100.00;93929.63;6246010;22;20529;-62
2022/09/10 05:20:09;;;;;;;1999.90;999.90;;;;;;;13.76;100.00;93940.28;6245469;22;20203;-60
2022/09/10 05:22:35;;;;;;;1999.90;999.90;;;;;;;13.75;100.00;93944.25;6245369;23;20220;-60
2022/09/10 05:25:01;;;;;;;1999.90;999.90;;;;;;;13.76;100.00;93956.75;6245458;22;20183;-60
2022/09/10 05:27:27;;;;;;;1999.90;999.90;;;;;;;13.81;100.00;93953.41;6271054;22;20172;-61
2022/09/10 05:29:52;;;;;;;1999.90;999.90;;;;;;;13.85;100.00;93965.00;6271164;22;20163;-61
2022/09/10 05:32:17;;;;;;;1999.90;999.90;;;;;;;13.98;100.00;93970.31;6271004;22;20198;-60
2022/09/10 05:34:47;;;;;;;1999.90;999.90;;;;;;;14.03;100.00;93975.19;6271178;22;20185;-61
2022/09/10 05:37:15;;;;;;;1999.90;999.90;;;;;;;14.03;100.00;93981.44;6270185;22;20196;-61
2022/09/10 05:39:41;;;;;;;1999.90;999.90;;;;;;;14.03;100.00;93986.94;6245290;22;20188;-58
2022/09/10 05:42:07;;;;;;;1999.90;999.90;;;;;;;14.00;100.00;93990.59;6245464;23;20164;-57
2022/09/10 05:44:32;;;;;;;1999.90;999.90;;;;;;;13.98;100.00;93995.75;6270969;22;20176;-55
2022/09/10 05:46:58;;;;;;;1999.90;999.90;;;;;;;13.97;100.00;93999.75;6270796;22;20218;-57
2022/09/10 05:49:24;;;;;;;1999.90;999.90;;;;;;;13.98;100.00;93998.50;6271352;22;20253;-58
2022/09/10 05:51:49;;;;;;;1999.90;999.90;;;;;;;13.99;100.00;93997.28;6270763;22;20177;-59
2022/09/10 05:54:15;;;;;;;1999.90;999.90;;;;;;;14.01;100.00;94013.28;6271029;22;20252;-57
2022/09/10 05:56:40;;;;;;;1999.90;999.90;;;;;;;14.06;100.00;94012.69;6245240;23;20164;-59
2022/09/10 05:59:06;;;;;;;1999.90;999.90;;;;;;;14.10;100.00;94014.06;6271175;22;20160;-57
2022/09/10 06:01:31;;;;;;;1999.90;999.90;;;;;;;14.17;100.00;94019.22;6270763;22;20255;-57
2022/09/10 06:03:57;;;;;;;1999.90;999.90;;;;;;;14.23;100.00;94022.91;6270740;22;20173;-57
2022/09/10 06:06:27;;;;;;;1999.90;999.90;;;;;;;14.28;100.00;94033.28;6245652;22;20176;-56
2022/09/10 06:08:55;;;;;;;1999.90;999.90;;;;;;;14.33;100.00;94027.19;6270709;22;20169;-57
2022/09/10 06:11:21;;;;;;;1999.90;999.90;;;;;;;14.38;100.00;94039.53;6244988;23;20207;-57
2022/09/10 06:13:47;;;;;;;1999.90;999.90;;;;;;;14.42;100.00;94045.63;6245185;22;20166;-58
2022/09/10 06:16:13;;;;;;;1999.90;999.90;;;;;;;14.36;100.00;94064.72;6270920;22;20171;-58
2022/09/10 06:18:38;;;;;;;1999.90;999.90;;;;;;;14.19;100.00;94059.97;6245775;22;20250;-59
2022/09/10 06:21:16;;;;;;;1999.90;999.90;;;;;;;14.00;100.00;94064.69;6271233;22;20189;-59
2022/09/10 06:23:42;;;;;;;1999.90;999.90;;;;;;;13.86;100.00;94059.81;6245200;23;20163;-59
2022/09/10 06:26:13;;;;;;;1999.90;999.90;;;;;;;13.71;100.00;94056.16;6245322;23;20193;-59
2022/09/10 06:28:39;;;;;;;1999.90;999.90;;;;;;;13.62;100.00;94050.63;6244512;22;20161;-59
2022/09/10 06:31:05;;;;;;;1999.90;999.90;;;;;;;13.58;100.00;94041.78;6245152;22;20162;-59
2022/09/10 06:33:31;;;;;;;1999.90;999.90;;;;;;;13.54;100.00;94032.94;6245308;23;20167;-59
2022/09/10 06:35:59;;;;;;;1999.90;999.90;;;;;;;13.52;100.00;94024.44;6244826;22;20593;-60
2022/09/10 06:38:29;;;;;;;1999.90;999.90;;;;;;;13.51;100.00;94011.91;6245105;23;20199;-60
2022/09/10 06:40:59;;;;;;;1999.90;999.90;;;;;;;13.51;100.00;93995.44;6244779;22;20677;-65
2022/09/10 06:43:26;;;;;;;1999.90;999.90;;;;;;;13.52;100.00;93985.25;6244918;22;20178;-65
2022/09/10 06:45:53;;;;;;;1999.90;999.90;;;;;;;13.53;100.00;93976.56;6245009;22;20168;-65
2022/09/10 06:48:20;;;;;;;1999.90;999.90;;;;;;;13.58;100.00;93959.50;6271037;22;20169;-66
2022/09/10 06:50:56;;;;;;;1999.90;999.90;;;;;;;13.58;100.00;93945.78;6245942;23;20643;-64
2022/09/10 06:53:23;;;;;;;1999.90;999.90;;;;;;;13.61;100.00;93938.63;6246061;23;20257;-65
2022/09/10 06:55:50;;;;;;;1999.90;999.90;;;;;;;13.61;100.00;93927.63;6271362;22;20162;-65
2022/09/10 06:58:20;;;;;;;1999.90;999.90;;;;;;;13.63;100.00;93919.72;6271693;22;20173;-65
2022/09/10 07:00:46;;;;;;;1999.90;999.90;;;;;;;13.69;100.00;93913.16;6271254;22;20187;-63
2022/09/10 07:03:17;;;;;;;1999.90;999.90;;;;;;;13.71;100.00;93899.75;6271624;22;20195;-64
2022/09/10 07:05:44;;;;;;;1999.90;999.90;;;;;;;13.75;100.00;93889.38;6246621;23;20171;-63
2022/09/10 07:08:15;;;;;;;1999.90;999.90;;;;;;;13.81;100.00;93884.81;6246587;22;20165;-64
2022/09/10 07:10:43;;;;;;;1999.90;999.90;;;;;;;13.82;100.00;93872.59;6246659;23;20172;-63
2022/09/10 07:13:09;;;;;;;1999.90;999.90;;;;;;;13.84;100.00;93874.88;6246262;23;20235;-64
2022/09/10 07:15:35;;;;;;;1999.90;999.90;;;;;;;13.94;100.00;93868.91;6246022;22;20599;-63
2022/09/10 07:18:01;;;;;;;1999.90;999.90;;;;;;;14.01;100.00;93868.59;6271765;22;20184;-62
2022/09/10 07:20:28;;;;;;;1999.90;999.90;;;;;;;14.05;100.00;93869.19;6245887;22;20283;-65
2022/09/10 07:22:55;;;;;;;1999.90;999.90;;;;;;;14.07;100.00;93869.50;6271371;22;20541;-65
2022/09/10 07:25:21;;;;;;;1999.90;999.90;;;;;;;14.14;100.00;93871.91;6271194;22;20165;-64
2022/09/10 07:27:47;;;;;;;1999.90;999.90;;;;;;;14.18;100.00;93861.53;6271366;22;20165;-64
2022/09/10 07:30:13;;;;;;;1999.90;999.90;;;;;;;14.37;100.00;93852.00;6271444;22;20222;-64
2022/09/10 07:32:39;;;;;;;1999.90;999.90;;;;;;;14.56;100.00;93858.16;6245905;23;20496;-63
2022/09/10 07:35:06;;;;;;;1999.90;999.90;;;;;;;14.67;100.00;93848.19;6245767;23;20161;-64
2022/09/10 07:37:32;;;;;;;1999.90;999.90;;;;;;;14.83;100.00;93839.53;6271479;22;20304;-67
2022/09/10 07:39:57;;;;;;;1999.90;999.90;;;;;;;14.93;100.00;93841.00;6271576;22;20215;-67
2022/09/10 07:42:24;;;;;;;1999.90;999.90;;;;;;;15.09;100.00;93839.81;6245849;22;20180;-67
2022/09/10 07:44:49;;;;;;;1999.90;999.90;;;;;;;15.39;100.00;93825.69;6271775;22;20221;-68
2022/09/10 07:47:15;;;;;;;1999.90;999.90;;;;;;;15.86;100.00;93820.03;6245876;23;20172;-67
2022/09/10 07:49:43;;;;;;;1999.90;999.90;;;;;;;16.12;100.00;93820.97;6271646;22;20235;-67
2022/09/10 07:52:09;;;;;;;1999.90;999.90;;;;;;;16.13;100.00;93841.75;6245766;22;20165;-67
2022/09/10 07:54:34;;;;;;;1999.90;999.90;;;;;;;15.90;100.00;93870.16;6245682;23;20171;-59
2022/09/10 07:57:00;;;;;;;1999.90;999.90;;;;;;;15.73;100.00;93904.88;6271319;22;20169;-59
2022/09/10 07:59:25;;;;;;;1999.90;999.90;;;;;;;15.56;100.00;93916.81;6271014;22;20184;-58
2022/09/10 08:01:51;;;;;;;1999.90;999.90;;;;;;;15.46;100.00;93948.38;6245583;23;20173;-59
2022/09/10 08:04:16;;;;;;;1999.90;999.90;;;;;;;15.26;100.00;93959.94;6271335;22;20161;-59
2022/09/10 08:06:42;;;;;;;1999.90;999.90;;;;;;;15.28;100.00;93970.47;6271749;22;20207;-59
2022/09/10 08:09:07;;;;;;;1999.90;999.90;;;;;;;15.34;100.00;93972.09;6246606;22;20157;-59
2022/09/10 08:11:33;;;;;;;1999.90;999.90;;;;;;;15.47;100.00;93980.91;6245981;23;20165;-59
2022/09/10 08:13:59;;;;;;;1999.90;999.90;;;;;;;15.52;100.00;93977.50;6271482;22;20158;-59
2022/09/10 08:16:26;;;;;;;1999.90;999.90;;;;;;;15.45;100.00;93994.38;6271554;22;20248;-59
2022/09/10 08:18:56;;;;;;;1999.90;999.90;;;;;;;15.45;100.00;93994.38;6245708;22;20161;-58
2022/09/10 08:21:23;;;;;;;1999.90;999.90;;;;;;;15.53;100.00;93995.56;6246373;23;20178;-59
2022/09/10 08:23:52;;;;;;;1999.90;999.90;;;;;;;15.55;100.00;94004.09;6245596;23;20168;-59
2022/09/10 08:26:23;;;;;;;1999.90;999.90;;;;;;;15.57;100.00;94007.16;6246246;22;20168;-65
2022/09/10 08:28:54;;;;;;;1999.90;999.90;;;;;;;15.59;100.00;94010.19;6246287;23;20233;-61
2022/09/10 08:31:21;;;;;;;1999.90;999.90;;;;;;;15.65;100.00;94008.31;6246220;23;20168;-61
2022/09/10 08:33:54;;;;;;;1999.90;999.90;;;;;;;15.75;100.00;94000.75;6245588;22;20161;-62
2022/09/10 08:36:22;;;;;;;1999.90;999.90;;;;;;;15.82;100.00;93989.38;6271269;22;20161;-64
2022/09/10 08:38:49;;;;;;;1999.90;999.90;;;;;;;15.80;100.00;94003.63;6245612;23;20252;-64
2022/09/10 08:41:17;;;;;;;1999.90;999.90;;;;;;;15.73;100.00;94026.00;6245928;23;20177;-62
2022/09/10 08:44:06;;;;;;;1999.90;999.90;;;;;;;15.78;100.00;94022.59;6270732;22;20173;-64
2022/09/10 08:46:39;;;;;;;1999.90;999.90;;;;;;;15.98;100.00;94025.50;6246403;23;20192;-66
2022/09/10 08:49:12;;;;;;;1999.90;999.90;;;;;;;16.31;100.00;94023.38;6271133;22;20168;-62
2022/09/10 08:51:49;;;;;;;1999.90;999.90;;;;;;;16.80;100.00;94025.53;6246060;23;20181;-62
2022/09/10 08:54:25;;;;;;;1999.90;999.90;;;;;;;17.35;100.00;94042.19;6245882;23;20268;-62
2022/09/10 08:56:54;;;;;;;1999.90;999.90;;;;;;;17.72;100.00;94049.53;6245505;22;20161;-65
2022/09/10 08:59:28;;;;;;;1999.90;999.90;;;;;;;17.86;100.00;94078.34;6245891;23;20215;-63
2022/09/10 09:02:02;;;;;;;1999.90;999.90;;;;;;;17.84;100.00;94098.16;6245757;23;20168;-66
2022/09/10 09:04:35;;;;;;;1999.90;999.90;;;;;;;18.17;100.00;94108.91;6246081;23;20165;-64
2022/09/10 09:07:10;;;;;;;1999.90;999.90;;;;;;;18.41;100.00;94118.53;6271771;22;20272;-61
2022/09/10 09:09:35;;;;;;;1999.90;999.90;;;;;;;18.38;100.00;94140.84;6245423;23;20187;-61
2022/09/10 09:12:24;;;;;;;1999.90;999.90;;;;;;;18.34;100.00;94151.31;6271069;22;20580;-67
2022/09/10 09:15:09;;;;;;;1999.90;999.90;;;;;;;18.26;100.00;94162.03;6270745;22;20165;-66
2022/09/10 09:18:09;;;;;;;1999.90;999.90;;;;;;;18.31;100.00;94168.88;6246327;23;20252;-65
2022/09/10 09:20:45;;;;;;;1999.90;999.90;;;;;;;18.44;100.00;94166.56;6270614;22;20223;-65
2022/09/10 09:23:23;;;;;;;1999.90;999.90;;;;;;;18.36;100.00;94182.06;6246107;23;20565;-63
2022/09/10 09:26:02;;;;;;;1999.90;999.90;;;;;;;18.05;100.00;94185.38;6245357;22;20165;-69
2022/09/10 09:28:40;;;;;;;1999.90;999.90;;;;;;;17.63;100.00;94192.50;6245754;23;20563;-65
2022/09/10 09:31:13;;;;;;;1999.90;999.90;;;;;;;17.47;100.00;94185.44;6271798;22;20214;-65
2022/09/10 09:33:40;;;;;;;1999.90;999.90;;;;;;;17.54;100.00;94179.53;6245760;23;20165;-69
2022/09/10 09:36:06;;;;;;;1999.90;999.90;;;;;;;17.82;100.00;94160.66;6245776;22;20165;-68
2022/09/10 09:38:37;;;;;;;1999.90;999.90;;;;;;;18.15;100.00;94145.31;6245228;22;20543;-65
2022/09/10 09:41:14;;;;;;;1999.90;999.90;;;;;;;18.38;100.00;94143.59;6271179;22;20193;-62
2022/09/10 09:44:02;;;;;;;1999.90;999.90;;;;;;;18.62;100.00;94141.41;6271375;22;20243;-64
2022/09/10 09:46:28;;;;;;;1999.90;999.90;;;;;;;18.45;100.00;94168.84;6271232;22;20173;-65
2022/09/10 09:48:58;;;;;;;1999.90;999.90;;;;;;;18.27;100.00;94184.91;6245090;22;20169;-64
2022/09/10 09:51:29;;;;;;;1999.90;999.90;;;;;;;17.44;100.00;94199.47;6244536;23;20264;-67
2022/09/10 09:53:59;;;;;;;1999.90;999.90;;;;;;;16.77;100.00;94199.44;6245959;23;20184;-67
2022/09/10 09:56:41;;;;;;;1999.90;999.90;;;;;;;16.57;100.00;94182.75;6270847;22;20242;-63
2022/09/10 09:59:20;;;;;;;1999.90;999.90;;;;;;;16.34;100.00;94162.19;6271125;22;20164;-62
2022/09/10 10:01:45;;;;;;;1999.90;999.90;;;;;;;16.10;100.00;94151.19;6245147;23;20157;-64
2022/09/10 10:04:21;;;;;;;1999.90;999.90;;;;;;;15.91;100.00;94136.00;6270873;22;20225;-66
2022/09/10 10:06:56;;;;;;;1999.90;999.90;;;;;;;15.87;100.00;94124.41;6245117;23;20157;-64
2022/09/10 10:09:26;;;;;;;1999.90;999.90;;;;;;;15.63;100.00;94136.63;6246104;23;20153;-65
2022/09/10 10:11:59;;;;;;;1999.90;999.90;;;;;;;15.33;100.00;94107.34;6244956;23;20161;-67
2022/09/10 10:14:30;;;;;;;1999.90;999.90;;;;;;;15.25;100.00;94095.94;6245075;23;20165;-61
2022/09/10 10:16:57;;;;;;;1999.90;999.90;;;;;;;15.14;100.00;94090.19;6270565;22;20173;-64
2022/09/10 10:19:30;;;;;;;1999.90;999.90;;;;;;;15.18;100.00;94065.25;6245205;22;20264;-67
2022/09/10 10:21:58;;;;;;;1999.90;999.90;;;;;;;15.14;100.00;94037.94;6245551;23;20172;-67
2022/09/10 10:24:32;;;;;;;1999.90;999.90;;;;;;;15.12;100.00;94021.13;6270143;22;20502;-64
2022/09/10 10:26:58;;;;;;;1999.90;999.90;;;;;;;15.26;100.00;93987.44;6245138;23;20165;-67
2022/09/10 10:29:25;;;;;;;1999.90;999.90;;;;;;;15.34;100.00;93977.59;6245025;22;20176;-65
2022/09/10 10:31:52;;;;;;;1999.90;999.90;;;;;;;15.41;100.00;93966.28;6244974;22;20644;-63
2022/09/10 10:35:02;;;;;;;1999.90;999.90;;;;;;;15.34;100.00;93952.09;6245682;23;20168;-64
2022/09/10 10:37:28;;;;;;;1999.90;999.90;;;;;;;15.25;100.00;93941.91;6238759;23;20528;-63
2022/09/10 10:40:17;;;;;;;1999.90;999.90;;;;;;;15.32;100.00;93918.78;6270004;22;20189;-63
2022/09/10 10:43:01;;;;;;;1999.90;999.90;;;;;;;15.55;100.00;93907.78;6270844;22;20164;-63
2022/09/10 10:46:03;;;;;;;1999.90;999.90;;;;;;;16.00;100.00;93877.06;6270954;22;20176;-64
2022/09/10 10:49:02;;;;;;;1999.90;999.90;;;;;;;16.47;100.00;93842.28;6245393;23;20199;-62
2022/09/10 10:51:40;;;;;;;1999.90;999.90;;;;;;;16.92;100.00;93825.13;6244736;23;20195;-64
2022/09/10 10:54:16;;;;;;;1999.90;999.90;;;;;;;17.59;100.00;93810.91;6245162;23;20556;-63
2022/09/10 10:57:10;;;;;;;1999.90;999.90;;;;;;;17.84;100.00;93810.13;6245481;23;20176;-64
2022/09/10 10:59:53;;;;;;;1999.90;999.90;;;;;;;17.86;100.00;93843.56;6244737;23;20185;-63